Charlottesville Albemarle Airport Charlottesville US
ICAO: KCHO
IATA: CHO
Category: Medium
Scheduled Services: Yes

Elevation: 639 ft
TransAlt. 18000 ft.

Airport Communications:
POTOMAC APP/DEP:132.85
ASOS:118.425
ATIS:118.425
CTAF:124.5
GND:121.9
LEESBURG RDO:122.2
TWR:124.5
UNICOM:122.95

KCHO Zoom In..

Runways:

(A) RW 03 length 6801 ft width 150 ft
ILS 111.70 / hdg 30

(B) RW 21 length 6801 ft width 150 ft
---- / hdg 210

Location; KCHO
Day. 21 / Time. 23.53 Zulu
* Altimeter: 30.31
* Temperature: 17° c. 62.6°f.
* Wind from: 150° Speed 04 kn.
Dewpoint: -02° c.
Visibility: 10 Statute Miles.
Clouds: Clear (automated report).

KCHO 212353Z 15004KT 10SM CLR 17/M02 A3031 RMK AO2 SLP263 T01671022 10194 20156 57000


Wind From 150°
Speed 04 kn.

  YouTube Music Video
 
jpsmedia.com for Web Design  worldairports.se 2018   terms of use